sensor_id;sensor_type;location;lat;lon;timestamp;temperature;humidity
22212;DHT22;11275;52.488;13.462;2022-12-22T00:01:52;7.70;99.90
22212;DHT22;11275;52.488;13.462;2022-12-22T00:04:39;7.70;99.90
22212;DHT22;11275;52.488;13.462;2022-12-22T00:07:25;7.70;99.90
22212;DHT22;11275;52.488;13.462;2022-12-22T00:10:09;7.70;99.90
22212;DHT22;11275;52.488;13.462;2022-12-22T00:12:53;7.70;99.90
22212;DHT22;11275;52.488;13.462;2022-12-22T00:15:37;7.70;99.90
22212;DHT22;11275;52.488;13.462;2022-12-22T00:18:23;7.70;99.90
22212;DHT22;11275;52.488;13.462;2022-12-22T00:21:11;7.60;99.90
22212;DHT22;11275;52.488;13.462;2022-12-22T00:23:56;7.70;99.90
22212;DHT22;11275;52.488;13.462;2022-12-22T00:26:41;7.70;99.90
22212;DHT22;11275;52.488;13.462;2022-12-22T00:29:30;7.60;99.90
22212;DHT22;11275;52.488;13.462;2022-12-22T00:32:15;7.60;99.90
22212;DHT22;11275;52.488;13.462;2022-12-22T00:35:00;7.70;99.90
22212;DHT22;11275;52.488;13.462;2022-12-22T00:37:44;7.70;99.90
22212;DHT22;11275;52.488;13.462;2022-12-22T00:40:28;7.70;99.90
22212;DHT22;11275;52.488;13.462;2022-12-22T00:43:13;7.70;99.90
22212;DHT22;11275;52.488;13.462;2022-12-22T00:46:01;7.70;99.90
22212;DHT22;11275;52.488;13.462;2022-12-22T00:48:46;7.70;99.90
22212;DHT22;11275;52.488;13.462;2022-12-22T00:51:32;7.70;99.90
22212;DHT22;11275;52.488;13.462;2022-12-22T00:54:18;7.70;99.90
22212;DHT22;11275;52.488;13.462;2022-12-22T00:57:03;7.70;99.90
22212;DHT22;11275;52.488;13.462;2022-12-22T00:59:48;7.70;99.90
22212;DHT22;11275;52.488;13.462;2022-12-22T01:02:33;7.70;99.90
22212;DHT22;11275;52.488;13.462;2022-12-22T01:05:17;7.80;99.90
22212;DHT22;11275;52.488;13.462;2022-12-22T01:08:01;7.80;99.90
22212;DHT22;11275;52.488;13.462;2022-12-22T01:10:45;7.80;99.90
22212;DHT22;11275;52.488;13.462;2022-12-22T01:13:29;7.80;99.90
22212;DHT22;11275;52.488;13.462;2022-12-22T01:16:14;7.80;99.90
22212;DHT22;11275;52.488;13.462;2022-12-22T01:18:58;7.80;99.90
22212;DHT22;11275;52.488;13.462;2022-12-22T01:21:42;7.90;99.90
22212;DHT22;11275;52.488;13.462;2022-12-22T01:24:28;7.90;99.90
22212;DHT22;11275;52.488;13.462;2022-12-22T01:27:13;7.90;99.90
22212;DHT22;11275;52.488;13.462;2022-12-22T01:29:57;7.90;99.90
22212;DHT22;11275;52.488;13.462;2022-12-22T01:32:41;7.90;99.90
22212;DHT22;11275;52.488;13.462;2022-12-22T01:35:30;7.90;99.90
22212;DHT22;11275;52.488;13.462;2022-12-22T01:38:14;7.90;99.90
22212;DHT22;11275;52.488;13.462;2022-12-22T01:40:59;7.90;99.90
22212;DHT22;11275;52.488;13.462;2022-12-22T01:43:44;8.00;99.90
22212;DHT22;11275;52.488;13.462;2022-12-22T01:46:36;8.00;99.90
22212;DHT22;11275;52.488;13.462;2022-12-22T01:49:34;7.90;99.90
22212;DHT22;11275;52.488;13.462;2022-12-22T01:52:23;7.90;99.90
22212;DHT22;11275;52.488;13.462;2022-12-22T01:55:12;7.80;99.90
22212;DHT22;11275;52.488;13.462;2022-12-22T01:57:58;7.70;99.90
22212;DHT22;11275;52.488;13.462;2022-12-22T02:00:44;7.60;99.90
22212;DHT22;11275;52.488;13.462;2022-12-22T02:03:28;7.60;99.90
22212;DHT22;11275;52.488;13.462;2022-12-22T02:15:18;7.90;99.90
22212;DHT22;11275;52.488;13.462;2022-12-22T02:18:22;7.90;99.90
22212;DHT22;11275;52.488;13.462;2022-12-22T02:21:18;7.90;99.90
22212;DHT22;11275;52.488;13.462;2022-12-22T02:26:59;7.90;99.90
22212;DHT22;11275;52.488;13.462;2022-12-22T02:29:50;7.90;99.90
22212;DHT22;11275;52.488;13.462;2022-12-22T02:32:38;8.00;99.90
22212;DHT22;11275;52.488;13.462;2022-12-22T02:35:23;8.00;99.90
22212;DHT22;11275;52.488;13.462;2022-12-22T02:38:30;8.00;99.90
22212;DHT22;11275;52.488;13.462;2022-12-22T02:41:32;8.00;99.90
22212;DHT22;11275;52.488;13.462;2022-12-22T02:47:26;8.00;99.90
22212;DHT22;11275;52.488;13.462;2022-12-22T02:53:02;8.00;99.90
22212;DHT22;11275;52.488;13.462;2022-12-22T02:55:48;8.00;99.90
22212;DHT22;11275;52.488;13.462;2022-12-22T02:58:33;8.00;99.90
22212;DHT22;11275;52.488;13.462;2022-12-22T03:01:18;8.10;99.90
22212;DHT22;11275;52.488;13.462;2022-12-22T03:04:03;8.00;99.90
22212;DHT22;11275;52.488;13.462;2022-12-22T03:06:47;8.00;99.90
22212;DHT22;11275;52.488;13.462;2022-12-22T03:09:31;7.90;99.90
22212;DHT22;11275;52.488;13.462;2022-12-22T03:12:15;7.80;99.90
22212;DHT22;11275;52.488;13.462;2022-12-22T03:14:59;7.70;99.90
22212;DHT22;11275;52.488;13.462;2022-12-22T03:17:43;7.70;99.90
22212;DHT22;11275;52.488;13.462;2022-12-22T03:20:27;7.70;99.90
22212;DHT22;11275;52.488;13.462;2022-12-22T03:23:11;7.90;99.90
22212;DHT22;11275;52.488;13.462;2022-12-22T03:25:55;8.00;99.90
22212;DHT22;11275;52.488;13.462;2022-12-22T03:28:24;7.90;99.90
22212;DHT22;11275;52.488;13.462;2022-12-22T03:31:00;8.00;99.90
22212;DHT22;11275;52.488;13.462;2022-12-22T03:33:28;7.80;99.90
22212;DHT22;11275;52.488;13.462;2022-12-22T03:35:53;7.80;99.90
22212;DHT22;11275;52.488;13.462;2022-12-22T03:38:19;7.80;99.90
22212;DHT22;11275;52.488;13.462;2022-12-22T03:40:45;7.80;99.90
22212;DHT22;11275;52.488;13.462;2022-12-22T03:43:15;7.80;99.90
22212;DHT22;11275;52.488;13.462;2022-12-22T03:46:00;7.80;99.90
22212;DHT22;11275;52.488;13.462;2022-12-22T03:48:45;7.90;99.90
22212;DHT22;11275;52.488;13.462;2022-12-22T03:51:42;7.90;99.90
22212;DHT22;11275;52.488;13.462;2022-12-22T03:54:09;8.00;99.90
22212;DHT22;11275;52.488;13.462;2022-12-22T03:56:36;7.90;99.90
22212;DHT22;11275;52.488;13.462;2022-12-22T03:59:02;8.00;99.90
22212;DHT22;11275;52.488;13.462;2022-12-22T04:01:28;7.90;99.90
22212;DHT22;11275;52.488;13.462;2022-12-22T04:03:53;7.90;99.90
22212;DHT22;11275;52.488;13.462;2022-12-22T04:06:19;7.80;99.90
22212;DHT22;11275;52.488;13.462;2022-12-22T04:08:45;7.80;99.90
22212;DHT22;11275;52.488;13.462;2022-12-22T04:11:15;7.80;99.90
22212;DHT22;11275;52.488;13.462;2022-12-22T04:14:00;7.80;99.90
22212;DHT22;11275;52.488;13.462;2022-12-22T04:16:26;7.80;99.90
22212;DHT22;11275;52.488;13.462;2022-12-22T04:18:52;7.80;99.90
22212;DHT22;11275;52.488;13.462;2022-12-22T04:21:17;7.80;99.90
22212;DHT22;11275;52.488;13.462;2022-12-22T04:23:43;7.80;99.90
22212;DHT22;11275;52.488;13.462;2022-12-22T04:26:09;7.80;99.90
22212;DHT22;11275;52.488;13.462;2022-12-22T04:28:35;7.80;99.90
22212;DHT22;11275;52.488;13.462;2022-12-22T04:31:00;7.80;99.90
22212;DHT22;11275;52.488;13.462;2022-12-22T04:33:26;7.90;99.90
22212;DHT22;11275;52.488;13.462;2022-12-22T04:35:52;7.90;99.90
22212;DHT22;11275;52.488;13.462;2022-12-22T04:38:18;7.80;99.90
22212;DHT22;11275;52.488;13.462;2022-12-22T04:40:44;7.70;99.90
22212;DHT22;11275;52.488;13.462;2022-12-22T04:43:09;7.70;99.90
22212;DHT22;11275;52.488;13.462;2022-12-22T04:45:35;7.60;99.90
22212;DHT22;11275;52.488;13.462;2022-12-22T04:48:00;7.60;99.90
22212;DHT22;11275;52.488;13.462;2022-12-22T04:50:26;7.40;99.90
22212;DHT22;11275;52.488;13.462;2022-12-22T04:52:52;7.50;99.90
22212;DHT22;11275;52.488;13.462;2022-12-22T04:55:17;7.60;99.90
22212;DHT22;11275;52.488;13.462;2022-12-22T04:57:43;7.70;99.90
22212;DHT22;11275;52.488;13.462;2022-12-22T05:00:09;7.80;99.90
22212;DHT22;11275;52.488;13.462;2022-12-22T05:02:35;7.90;99.90
22212;DHT22;11275;52.488;13.462;2022-12-22T05:05:01;7.80;99.90
22212;DHT22;11275;52.488;13.462;2022-12-22T05:07:26;7.80;99.90
22212;DHT22;11275;52.488;13.462;2022-12-22T05:09:52;7.80;99.90
22212;DHT22;11275;52.488;13.462;2022-12-22T05:12:17;7.90;99.90
22212;DHT22;11275;52.488;13.462;2022-12-22T05:15:02;7.90;99.90
22212;DHT22;11275;52.488;13.462;2022-12-22T05:17:27;7.90;99.90
22212;DHT22;11275;52.488;13.462;2022-12-22T05:19:53;7.90;99.90
22212;DHT22;11275;52.488;13.462;2022-12-22T05:22:19;7.90;99.90
22212;DHT22;11275;52.488;13.462;2022-12-22T05:24:44;7.90;99.90
22212;DHT22;11275;52.488;13.462;2022-12-22T05:27:11;7.90;99.90
22212;DHT22;11275;52.488;13.462;2022-12-22T05:29:36;7.90;99.90
22212;DHT22;11275;52.488;13.462;2022-12-22T05:32:02;7.80;99.90
22212;DHT22;11275;52.488;13.462;2022-12-22T05:34:28;7.80;99.90
22212;DHT22;11275;52.488;13.462;2022-12-22T05:36:53;7.80;99.90
22212;DHT22;11275;52.488;13.462;2022-12-22T05:39:19;7.90;99.90
22212;DHT22;11275;52.488;13.462;2022-12-22T05:41:45;8.00;99.90
22212;DHT22;11275;52.488;13.462;2022-12-22T05:44:11;7.90;99.90
22212;DHT22;11275;52.488;13.462;2022-12-22T05:46:36;7.80;99.90
22212;DHT22;11275;52.488;13.462;2022-12-22T05:49:02;7.80;99.90
22212;DHT22;11275;52.488;13.462;2022-12-22T05:51:27;7.80;99.90
22212;DHT22;11275;52.488;13.462;2022-12-22T05:53:53;7.90;99.90
22212;DHT22;11275;52.488;13.462;2022-12-22T05:56:19;7.90;99.90
22212;DHT22;11275;52.488;13.462;2022-12-22T05:58:44;7.90;99.90
22212;DHT22;11275;52.488;13.462;2022-12-22T06:01:10;7.80;99.90
22212;DHT22;11275;52.488;13.462;2022-12-22T06:03:35;7.80;99.90
22212;DHT22;11275;52.488;13.462;2022-12-22T06:06:01;7.90;99.90
22212;DHT22;11275;52.488;13.462;2022-12-22T06:08:27;7.90;99.90
22212;DHT22;11275;52.488;13.462;2022-12-22T06:10:54;8.00;99.90
22212;DHT22;11275;52.488;13.462;2022-12-22T06:13:20;8.10;99.90
22212;DHT22;11275;52.488;13.462;2022-12-22T06:15:47;8.10;99.90
22212;DHT22;11275;52.488;13.462;2022-12-22T06:18:13;8.10;99.90
22212;DHT22;11275;52.488;13.462;2022-12-22T06:20:39;8.10;99.90
22212;DHT22;11275;52.488;13.462;2022-12-22T06:23:04;8.10;99.90
22212;DHT22;11275;52.488;13.462;2022-12-22T06:25:30;8.10;99.90
22212;DHT22;11275;52.488;13.462;2022-12-22T06:27:56;8.20;99.90
22212;DHT22;11275;52.488;13.462;2022-12-22T06:30:21;8.20;99.90
22212;DHT22;11275;52.488;13.462;2022-12-22T06:32:47;8.20;99.90
22212;DHT22;11275;52.488;13.462;2022-12-22T06:35:13;8.10;99.90
22212;DHT22;11275;52.488;13.462;2022-12-22T06:37:39;8.10;99.90
22212;DHT22;11275;52.488;13.462;2022-12-22T06:40:06;8.10;99.90
22212;DHT22;11275;52.488;13.462;2022-12-22T06:42:32;8.10;99.90
22212;DHT22;11275;52.488;13.462;2022-12-22T06:45:16;8.10;99.90
22212;DHT22;11275;52.488;13.462;2022-12-22T06:47:41;8.10;99.90
22212;DHT22;11275;52.488;13.462;2022-12-22T06:50:07;8.10;99.90
22212;DHT22;11275;52.488;13.462;2022-12-22T06:52:33;8.30;99.90
22212;DHT22;11275;52.488;13.462;2022-12-22T06:54:59;8.30;99.90
22212;DHT22;11275;52.488;13.462;2022-12-22T06:57:26;8.40;99.90
22212;DHT22;11275;52.488;13.462;2022-12-22T06:59:52;8.40;99.90
22212;DHT22;11275;52.488;13.462;2022-12-22T07:02:18;8.40;99.90
22212;DHT22;11275;52.488;13.462;2022-12-22T07:04:43;8.50;99.90
22212;DHT22;11275;52.488;13.462;2022-12-22T07:07:10;8.50;99.90
22212;DHT22;11275;52.488;13.462;2022-12-22T07:09:35;8.50;99.90
22212;DHT22;11275;52.488;13.462;2022-12-22T07:12:04;8.50;99.90
22212;DHT22;11275;52.488;13.462;2022-12-22T07:14:30;8.50;99.90
22212;DHT22;11275;52.488;13.462;2022-12-22T07:16:55;8.50;99.90
22212;DHT22;11275;52.488;13.462;2022-12-22T07:19:21;8.60;99.90
22212;DHT22;11275;52.488;13.462;2022-12-22T07:21:47;8.60;99.90
22212;DHT22;11275;52.488;13.462;2022-12-22T07:24:13;8.50;99.90
22212;DHT22;11275;52.488;13.462;2022-12-22T07:26:39;8.50;99.90
22212;DHT22;11275;52.488;13.462;2022-12-22T07:29:04;8.50;99.90
22212;DHT22;11275;52.488;13.462;2022-12-22T07:31:30;8.50;99.90
22212;DHT22;11275;52.488;13.462;2022-12-22T07:33:55;8.50;99.90
22212;DHT22;11275;52.488;13.462;2022-12-22T07:36:21;8.50;99.90
22212;DHT22;11275;52.488;13.462;2022-12-22T07:38:49;8.50;99.90
22212;DHT22;11275;52.488;13.462;2022-12-22T07:41:16;8.50;99.90
22212;DHT22;11275;52.488;13.462;2022-12-22T07:44:02;8.50;99.90
22212;DHT22;11275;52.488;13.462;2022-12-22T07:46:30;8.50;99.90
22212;DHT22;11275;52.488;13.462;2022-12-22T07:48:57;8.50;99.90
22212;DHT22;11275;52.488;13.462;2022-12-22T07:51:41;8.60;99.90
22212;DHT22;11275;52.488;13.462;2022-12-22T07:54:09;8.60;99.90
22212;DHT22;11275;52.488;13.462;2022-12-22T07:56:35;8.60;99.90
22212;DHT22;11275;52.488;13.462;2022-12-22T07:59:01;8.70;99.90
22212;DHT22;11275;52.488;13.462;2022-12-22T08:01:26;8.80;99.90
22212;DHT22;11275;52.488;13.462;2022-12-22T08:03:52;8.80;99.90
22212;DHT22;11275;52.488;13.462;2022-12-22T08:06:18;8.80;99.90
22212;DHT22;11275;52.488;13.462;2022-12-22T08:08:43;8.80;99.90
22212;DHT22;11275;52.488;13.462;2022-12-22T08:11:09;8.70;99.90
22212;DHT22;11275;52.488;13.462;2022-12-22T08:13:35;8.70;99.90
22212;DHT22;11275;52.488;13.462;2022-12-22T08:16:06;8.70;99.90
22212;DHT22;11275;52.488;13.462;2022-12-22T08:18:32;8.70;99.90
22212;DHT22;11275;52.488;13.462;2022-12-22T08:20:58;8.70;99.90
22212;DHT22;11275;52.488;13.462;2022-12-22T08:23:24;8.80;99.90
22212;DHT22;11275;52.488;13.462;2022-12-22T08:28:32;8.80;99.90
22212;DHT22;11275;52.488;13.462;2022-12-22T08:30:59;8.80;99.90
22212;DHT22;11275;52.488;13.462;2022-12-22T08:33:26;8.80;99.90
22212;DHT22;11275;52.488;13.462;2022-12-22T08:35:53;8.90;99.90
22212;DHT22;11275;52.488;13.462;2022-12-22T08:38:19;8.90;99.90
22212;DHT22;11275;52.488;13.462;2022-12-22T08:40:46;8.90;99.90
22212;DHT22;11275;52.488;13.462;2022-12-22T08:43:12;8.90;99.90
22212;DHT22;11275;52.488;13.462;2022-12-22T08:45:40;8.90;99.90
22212;DHT22;11275;52.488;13.462;2022-12-22T08:48:07;8.90;99.90
22212;DHT22;11275;52.488;13.462;2022-12-22T08:50:33;8.90;99.90
22212;DHT22;11275;52.488;13.462;2022-12-22T08:53:03;8.90;99.90
22212;DHT22;11275;52.488;13.462;2022-12-22T08:55:28;8.90;99.90
22212;DHT22;11275;52.488;13.462;2022-12-22T08:57:54;8.90;99.90
22212;DHT22;11275;52.488;13.462;2022-12-22T09:00:20;8.90;99.90
22212;DHT22;11275;52.488;13.462;2022-12-22T09:02:46;9.00;99.90
22212;DHT22;11275;52.488;13.462;2022-12-22T09:05:12;9.00;99.90
22212;DHT22;11275;52.488;13.462;2022-12-22T09:07:37;9.00;99.90
22212;DHT22;11275;52.488;13.462;2022-12-22T09:10:03;9.00;99.90
22212;DHT22;11275;52.488;13.462;2022-12-22T09:12:29;9.00;99.90
22212;DHT22;11275;52.488;13.462;2022-12-22T09:14:55;9.00;99.90
22212;DHT22;11275;52.488;13.462;2022-12-22T09:17:20;9.00;99.90
22212;DHT22;11275;52.488;13.462;2022-12-22T09:19:46;9.10;99.90
22212;DHT22;11275;52.488;13.462;2022-12-22T09:22:12;9.10;99.90
22212;DHT22;11275;52.488;13.462;2022-12-22T09:24:37;9.10;99.90
22212;DHT22;11275;52.488;13.462;2022-12-22T09:27:03;9.20;99.90
22212;DHT22;11275;52.488;13.462;2022-12-22T09:29:30;9.20;99.90
22212;DHT22;11275;52.488;13.462;2022-12-22T09:31:56;9.20;99.90
22212;DHT22;11275;52.488;13.462;2022-12-22T09:34:22;9.20;99.90
22212;DHT22;11275;52.488;13.462;2022-12-22T09:36:47;9.20;99.90
22212;DHT22;11275;52.488;13.462;2022-12-22T09:39:13;9.20;99.90
22212;DHT22;11275;52.488;13.462;2022-12-22T09:41:49;9.20;99.90
22212;DHT22;11275;52.488;13.462;2022-12-22T09:44:35;9.20;99.90
22212;DHT22;11275;52.488;13.462;2022-12-22T09:47:11;9.30;99.90
22212;DHT22;11275;52.488;13.462;2022-12-22T09:49:38;9.30;99.90
22212;DHT22;11275;52.488;13.462;2022-12-22T09:52:04;9.30;99.90
22212;DHT22;11275;52.488;13.462;2022-12-22T09:54:30;9.30;99.90
22212;DHT22;11275;52.488;13.462;2022-12-22T09:56:57;9.30;99.90
22212;DHT22;11275;52.488;13.462;2022-12-22T09:59:26;9.30;99.90
22212;DHT22;11275;52.488;13.462;2022-12-22T10:04:56;9.40;99.90
22212;DHT22;11275;52.488;13.462;2022-12-22T10:07:31;9.40;99.90
22212;DHT22;11275;52.488;13.462;2022-12-22T10:10:21;9.40;99.90
22212;DHT22;11275;52.488;13.462;2022-12-22T10:12:50;9.40;99.90
22212;DHT22;11275;52.488;13.462;2022-12-22T10:15:16;9.40;99.90
22212;DHT22;11275;52.488;13.462;2022-12-22T10:17:42;9.40;99.90
22212;DHT22;11275;52.488;13.462;2022-12-22T10:25:44;9.50;99.90
22212;DHT22;11275;52.488;13.462;2022-12-22T10:28:28;9.50;99.90
22212;DHT22;11275;52.488;13.462;2022-12-22T10:33:47;9.50;99.90
22212;DHT22;11275;52.488;13.462;2022-12-22T10:36:15;9.50;99.90
22212;DHT22;11275;52.488;13.462;2022-12-22T10:39:00;9.60;99.90
22212;DHT22;11275;52.488;13.462;2022-12-22T10:41:29;9.60;99.90
22212;DHT22;11275;52.488;13.462;2022-12-22T10:44:05;9.60;99.90
22212;DHT22;11275;52.488;13.462;2022-12-22T10:46:45;9.60;99.90
22212;DHT22;11275;52.488;13.462;2022-12-22T10:51:44;9.60;99.90
22212;DHT22;11275;52.488;13.462;2022-12-22T10:54:30;9.60;99.90
22212;DHT22;11275;52.488;13.462;2022-12-22T10:59:57;9.70;99.90
22212;DHT22;11275;52.488;13.462;2022-12-22T11:04:49;9.70;99.90
22212;DHT22;11275;52.488;13.462;2022-12-22T11:07:15;9.80;99.90
22212;DHT22;11275;52.488;13.462;2022-12-22T11:09:41;9.80;99.90
22212;DHT22;11275;52.488;13.462;2022-12-22T11:17:09;9.80;99.90
22212;DHT22;11275;52.488;13.462;2022-12-22T11:19:57;10.00;99.90
22212;DHT22;11275;52.488;13.462;2022-12-22T11:22:47;10.00;99.90
22212;DHT22;11275;52.488;13.462;2022-12-22T11:30:25;10.00;99.90
22212;DHT22;11275;52.488;13.462;2022-12-22T11:35:40;10.00;99.90
22212;DHT22;11275;52.488;13.462;2022-12-22T11:40:41;10.00;99.90
22212;DHT22;11275;52.488;13.462;2022-12-22T11:46:00;10.10;99.90
22212;DHT22;11275;52.488;13.462;2022-12-22T12:00:08;10.10;99.90
22212;DHT22;11275;52.488;13.462;2022-12-22T12:03:12;10.10;99.90
22212;DHT22;11275;52.488;13.462;2022-12-22T12:11:22;10.20;99.90
22212;DHT22;11275;52.488;13.462;2022-12-22T12:17:03;10.20;99.90
22212;DHT22;11275;52.488;13.462;2022-12-22T12:25:22;10.30;99.90
22212;DHT22;11275;52.488;13.462;2022-12-22T12:30:51;10.30;99.90
22212;DHT22;11275;52.488;13.462;2022-12-22T12:36:12;10.30;99.90
22212;DHT22;11275;52.488;13.462;2022-12-22T12:39:03;10.30;99.90
22212;DHT22;11275;52.488;13.462;2022-12-22T12:44:17;10.30;99.90
22212;DHT22;11275;52.488;13.462;2022-12-22T12:46:53;10.30;99.90
22212;DHT22;11275;52.488;13.462;2022-12-22T12:54:37;10.20;99.90
22212;DHT22;11275;52.488;13.462;2022-12-22T13:08:09;10.30;99.90
22212;DHT22;11275;52.488;13.462;2022-12-22T13:23:28;10.30;99.90
22212;DHT22;11275;52.488;13.462;2022-12-22T13:25:58;10.30;99.90
22212;DHT22;11275;52.488;13.462;2022-12-22T13:28:27;10.30;99.90
22212;DHT22;11275;52.488;13.462;2022-12-22T13:31:04;10.30;99.90
22212;DHT22;11275;52.488;13.462;2022-12-22T13:33:36;10.30;99.90
22212;DHT22;11275;52.488;13.462;2022-12-22T13:36:04;10.30;99.90
22212;DHT22;11275;52.488;13.462;2022-12-22T13:38:32;10.30;99.90
22212;DHT22;11275;52.488;13.462;2022-12-22T13:40:59;10.30;99.90
22212;DHT22;11275;52.488;13.462;2022-12-22T13:43:28;10.40;99.90
22212;DHT22;11275;52.488;13.462;2022-12-22T13:45:56;10.30;99.90
22212;DHT22;11275;52.488;13.462;2022-12-22T13:48:37;10.30;99.90
22212;DHT22;11275;52.488;13.462;2022-12-22T13:51:07;10.20;99.90
22212;DHT22;11275;52.488;13.462;2022-12-22T13:53:36;10.20;99.90
22212;DHT22;11275;52.488;13.462;2022-12-22T13:56:11;10.30;99.90
22212;DHT22;11275;52.488;13.462;2022-12-22T13:58:39;10.30;99.90
22212;DHT22;11275;52.488;13.462;2022-12-22T14:03:37;10.30;99.90
22212;DHT22;11275;52.488;13.462;2022-12-22T14:06:35;10.30;99.90
22212;DHT22;11275;52.488;13.462;2022-12-22T14:09:21;10.30;99.90
22212;DHT22;11275;52.488;13.462;2022-12-22T14:11:51;10.30;99.90
22212;DHT22;11275;52.488;13.462;2022-12-22T14:14:28;10.30;99.90
22212;DHT22;11275;52.488;13.462;2022-12-22T14:16:58;10.30;99.90
22212;DHT22;11275;52.488;13.462;2022-12-22T14:19:27;10.20;99.90
22212;DHT22;11275;52.488;13.462;2022-12-22T14:22:08;10.30;99.90
22212;DHT22;11275;52.488;13.462;2022-12-22T14:24:43;10.30;99.90
22212;DHT22;11275;52.488;13.462;2022-12-22T14:27:37;10.30;99.90
22212;DHT22;11275;52.488;13.462;2022-12-22T14:30:17;10.30;99.90
22212;DHT22;11275;52.488;13.462;2022-12-22T14:32:48;10.20;99.90
22212;DHT22;11275;52.488;13.462;2022-12-22T14:37:51;10.30;99.90
22212;DHT22;11275;52.488;13.462;2022-12-22T14:40:37;10.20;99.90
22212;DHT22;11275;52.488;13.462;2022-12-22T14:43:05;10.20;99.90
22212;DHT22;11275;52.488;13.462;2022-12-22T14:45:32;10.20;99.90
22212;DHT22;11275;52.488;13.462;2022-12-22T14:47:59;10.20;99.90
22212;DHT22;11275;52.488;13.462;2022-12-22T14:50:26;10.20;99.90
22212;DHT22;11275;52.488;13.462;2022-12-22T14:53:00;10.20;99.90
22212;DHT22;11275;52.488;13.462;2022-12-22T14:55:33;10.20;99.90
22212;DHT22;11275;52.488;13.462;2022-12-22T15:00:35;10.20;99.90
22212;DHT22;11275;52.488;13.462;2022-12-22T15:03:04;10.30;99.90
22212;DHT22;11275;52.488;13.462;2022-12-22T15:05:37;10.30;99.90
22212;DHT22;11275;52.488;13.462;2022-12-22T15:08:05;10.20;99.90
22212;DHT22;11275;52.488;13.462;2022-12-22T15:10:39;10.30;99.90
22212;DHT22;11275;52.488;13.462;2022-12-22T15:13:10;10.30;99.90
22212;DHT22;11275;52.488;13.462;2022-12-22T15:15:36;10.20;99.90
22212;DHT22;11275;52.488;13.462;2022-12-22T15:18:02;10.20;99.90
22212;DHT22;11275;52.488;13.462;2022-12-22T15:20:28;10.20;99.90
22212;DHT22;11275;52.488;13.462;2022-12-22T15:22:54;10.20;99.90
22212;DHT22;11275;52.488;13.462;2022-12-22T15:25:21;10.20;99.90
22212;DHT22;11275;52.488;13.462;2022-12-22T15:27:48;10.30;99.90
22212;DHT22;11275;52.488;13.462;2022-12-22T15:30:16;10.30;99.90
22212;DHT22;11275;52.488;13.462;2022-12-22T15:32:42;10.30;99.90
22212;DHT22;11275;52.488;13.462;2022-12-22T15:35:32;10.30;99.90
22212;DHT22;11275;52.488;13.462;2022-12-22T15:37:59;10.30;99.90
22212;DHT22;11275;52.488;13.462;2022-12-22T15:40:26;10.30;99.90
22212;DHT22;11275;52.488;13.462;2022-12-22T15:42:53;10.30;99.90
22212;DHT22;11275;52.488;13.462;2022-12-22T15:45:20;10.30;99.90
22212;DHT22;11275;52.488;13.462;2022-12-22T15:47:51;10.30;99.90
22212;DHT22;11275;52.488;13.462;2022-12-22T15:50:36;10.30;99.90
22212;DHT22;11275;52.488;13.462;2022-12-22T15:53:04;10.30;99.90
22212;DHT22;11275;52.488;13.462;2022-12-22T15:55:30;10.20;99.90
22212;DHT22;11275;52.488;13.462;2022-12-22T15:57:57;10.30;99.90
22212;DHT22;11275;52.488;13.462;2022-12-22T16:00:24;10.20;99.90
22212;DHT22;11275;52.488;13.462;2022-12-22T16:02:50;10.20;99.90
22212;DHT22;11275;52.488;13.462;2022-12-22T16:05:16;10.30;99.90
22212;DHT22;11275;52.488;13.462;2022-12-22T16:07:42;10.30;99.90
22212;DHT22;11275;52.488;13.462;2022-12-22T16:10:24;10.30;99.90
22212;DHT22;11275;52.488;13.462;2022-12-22T16:12:52;10.30;99.90
22212;DHT22;11275;52.488;13.462;2022-12-22T16:15:20;10.20;99.90
22212;DHT22;11275;52.488;13.462;2022-12-22T16:17:46;10.30;99.90
22212;DHT22;11275;52.488;13.462;2022-12-22T16:20:12;10.30;99.90
22212;DHT22;11275;52.488;13.462;2022-12-22T16:22:38;10.30;99.90
22212;DHT22;11275;52.488;13.462;2022-12-22T16:25:12;10.30;99.90
22212;DHT22;11275;52.488;13.462;2022-12-22T16:27:38;10.30;99.90
22212;DHT22;11275;52.488;13.462;2022-12-22T16:30:04;10.30;99.90
22212;DHT22;11275;52.488;13.462;2022-12-22T16:32:30;10.30;99.90
22212;DHT22;11275;52.488;13.462;2022-12-22T16:35:21;10.20;99.90
22212;DHT22;11275;52.488;13.462;2022-12-22T16:37:47;10.30;99.90
22212;DHT22;11275;52.488;13.462;2022-12-22T16:40:18;10.30;99.90
22212;DHT22;11275;52.488;13.462;2022-12-22T16:45:26;10.20;99.90
22212;DHT22;11275;52.488;13.462;2022-12-22T16:47:52;10.20;99.90
22212;DHT22;11275;52.488;13.462;2022-12-22T16:50:23;10.10;99.90
22212;DHT22;11275;52.488;13.462;2022-12-22T16:52:58;10.10;99.90
22212;DHT22;11275;52.488;13.462;2022-12-22T16:55:23;10.00;99.90
22212;DHT22;11275;52.488;13.462;2022-12-22T16:57:49;10.00;99.90
22212;DHT22;11275;52.488;13.462;2022-12-22T17:00:17;10.00;99.90
22212;DHT22;11275;52.488;13.462;2022-12-22T17:02:46;9.90;99.90
22212;DHT22;11275;52.488;13.462;2022-12-22T17:05:34;9.80;99.90
22212;DHT22;11275;52.488;13.462;2022-12-22T17:08:03;9.80;99.90
22212;DHT22;11275;52.488;13.462;2022-12-22T17:10:29;9.80;99.90
22212;DHT22;11275;52.488;13.462;2022-12-22T17:12:56;9.70;99.90
22212;DHT22;11275;52.488;13.462;2022-12-22T17:15:23;9.60;99.90
22212;DHT22;11275;52.488;13.462;2022-12-22T17:17:49;9.60;99.90
22212;DHT22;11275;52.488;13.462;2022-12-22T17:20:17;9.70;99.90
22212;DHT22;11275;52.488;13.462;2022-12-22T17:22:54;9.70;99.90
22212;DHT22;11275;52.488;13.462;2022-12-22T17:25:23;9.80;99.90
22212;DHT22;11275;52.488;13.462;2022-12-22T17:27:49;9.90;99.90
22212;DHT22;11275;52.488;13.462;2022-12-22T17:30:18;9.90;99.90
22212;DHT22;11275;52.488;13.462;2022-12-22T17:32:45;9.80;99.90
22212;DHT22;11275;52.488;13.462;2022-12-22T17:35:18;9.90;99.90
22212;DHT22;11275;52.488;13.462;2022-12-22T17:37:45;9.90;99.90
22212;DHT22;11275;52.488;13.462;2022-12-22T17:42:40;9.80;99.90
22212;DHT22;11275;52.488;13.462;2022-12-22T17:45:12;9.80;99.90
22212;DHT22;11275;52.488;13.462;2022-12-22T17:47:38;9.90;99.90
22212;DHT22;11275;52.488;13.462;2022-12-22T17:50:04;9.80;99.90
22212;DHT22;11275;52.488;13.462;2022-12-22T17:52:31;9.90;99.90
22212;DHT22;11275;52.488;13.462;2022-12-22T17:54:56;9.90;99.90
22212;DHT22;11275;52.488;13.462;2022-12-22T17:57:29;9.90;99.90
22212;DHT22;11275;52.488;13.462;2022-12-22T17:59:56;9.90;99.90
22212;DHT22;11275;52.488;13.462;2022-12-22T18:02:22;9.90;99.90
22212;DHT22;11275;52.488;13.462;2022-12-22T18:04:49;9.90;99.90
22212;DHT22;11275;52.488;13.462;2022-12-22T18:07:20;9.80;99.90
22212;DHT22;11275;52.488;13.462;2022-12-22T18:09:47;9.80;99.90
22212;DHT22;11275;52.488;13.462;2022-12-22T18:12:21;9.70;99.90
22212;DHT22;11275;52.488;13.462;2022-12-22T18:14:49;9.70;99.90